Time;durP1;ratioP1;P1;durP2;ratioP2;P2;SDS_P1;SDS_P2;PMS_P1;PMS_P2;Temp;Humidity;BMP_temperature;BMP_pressure;BME280_temperature;BME280_humidity;BME280_pressure;Samples;Min_cycle;Max_cycle;Signal;HPM_P1;HPM_P2
2022/02/11 00:00:02;;;;;;;5.43;1.05;;;3.50;99.90;;;;;;5075731;28;20606;-80
2022/02/11 00:05:50;;;;;;;1.08;0.98;;;3.60;99.90;;;;;;5076105;28;20631;-78
2022/02/11 00:08:10;;;;;;;1.23;1.13;;;3.60;99.90;;;;;;5074809;28;20277;-79
2022/02/11 00:10:37;;;;;;;3.75;1.35;;;3.60;99.90;;;;;;5074714;28;20268;-80
2022/02/11 00:13:04;;;;;;;7.90;4.65;;;3.60;99.90;;;;;;5075043;28;20244;-80
2022/02/11 00:18:17;;;;;;;0.60;0.60;;;3.60;99.90;;;;;;5073756;28;20250;-80
2022/02/11 00:20:50;;;;;;;0.93;0.63;;;3.70;99.90;;;;;;5073581;28;20202;-79
2022/02/11 00:23:18;;;;;;;1.30;1.13;;;3.70;99.90;;;;;;5073580;28;20724;-78
2022/02/11 00:25:50;;;;;;;0.50;0.45;;;3.70;99.90;;;;;;5073503;28;20197;-79
2022/02/11 00:34:03;;;;;;;0.75;0.75;;;3.60;99.90;;;;;;5074405;28;20219;-78
2022/02/11 00:36:34;;;;;;;1.70;1.17;;;3.70;99.90;;;;;;5073482;28;20210;-80
2022/02/11 00:39:22;;;;;;;1.60;1.40;;;3.70;99.90;;;;;;5073411;28;20178;-79
2022/02/11 01:03:56;;;;;;;1.60;1.50;;;3.30;99.90;;;;;;5073452;28;20205;-79
2022/02/11 01:06:24;;;;;;;2.70;2.42;;;3.40;99.90;;;;;;5073919;28;20176;-78
2022/02/11 01:08:51;;;;;;;1.92;1.83;;;3.30;99.90;;;;;;5073258;28;20201;-78
2022/02/11 01:11:23;;;;;;;1.17;1.13;;;3.30;99.90;;;;;;5073059;28;20197;-79
2022/02/11 01:13:50;;;;;;;1.02;1.02;;;3.30;99.90;;;;;;5072942;28;20205;-79
2022/02/11 01:16:22;;;;;;;2.83;2.25;;;3.30;99.90;;;;;;5073486;28;20209;-81
2022/02/11 01:18:57;;;;;;;3.42;1.48;;;3.20;99.90;;;;;;5073146;28;20197;-78
2022/02/11 01:21:33;;;;;;;1.40;1.30;;;3.20;99.90;;;;;;5073254;28;20196;-79
2022/02/11 01:24:10;;;;;;;1.02;0.95;;;3.20;99.90;;;;;;5072811;28;20178;-79
2022/02/11 01:26:46;;;;;;;0.70;0.70;;;3.20;99.90;;;;;;5072435;28;20219;-79
2022/02/11 01:29:46;;;;;;;0.93;0.93;;;3.20;99.90;;;;;;5072476;28;20201;-79
2022/02/11 01:32:27;;;;;;;4.78;1.73;;;3.20;99.90;;;;;;5072285;28;20726;-76
2022/02/11 01:35:03;;;;;;;5.55;4.05;;;3.20;99.90;;;;;;5072564;28;20197;-79
2022/02/11 01:37:38;;;;;;;2.35;2.15;;;3.10;99.90;;;;;;5076922;28;20224;-78
2022/02/11 01:46:09;;;;;;;3.35;2.05;;;3.10;99.90;;;;;;5045461;28;20673;-79
2022/02/11 01:51:42;;;;;;;1.20;1.10;;;3.00;99.90;;;;;;5014378;28;20210;-79
2022/02/11 01:54:16;;;;;;;1.20;1.10;;;3.00;99.90;;;;;;5065532;28;20202;-79
2022/02/11 01:56:55;;;;;;;1.98;1.88;;;3.00;99.90;;;;;;5076556;28;20625;-79
2022/02/11 02:00:05;;;;;;;2.78;2.58;;;3.00;99.90;;;;;;5076521;28;20547;-79
2022/02/11 02:03:10;;;;;;;19.13;2.17;;;2.90;99.90;;;;;;5076262;28;20220;-79
2022/02/11 02:06:03;;;;;;;2.67;2.40;;;2.90;99.90;;;;;;5075954;28;20287;-78
2022/02/11 02:11:58;;;;;;;2.05;1.75;;;2.80;99.90;;;;;;5012643;28;20539;-78
2022/02/11 02:20:41;;;;;;;2.60;1.88;;;2.70;99.90;;;;;;5012324;28;20203;-79
2022/02/11 02:23:04;;;;;;;3.15;2.83;;;2.70;99.90;;;;;;5012682;28;20739;-78
2022/02/11 02:25:39;;;;;;;0.50;0.40;;;2.60;99.90;;;;;;5012388;28;20234;-79
2022/02/11 02:28:42;;;;;;;15.02;4.20;;;2.60;99.90;;;;;;5012715;28;20286;-79
2022/02/11 02:34:07;;;;;;;0.50;0.40;;;2.50;99.90;;;;;;5011619;28;20203;-79
2022/02/11 02:36:52;;;;;;;1.60;1.50;;;2.50;99.90;;;;;;5012148;28;20231;-78
2022/02/11 02:56:35;;;;;;;0.50;0.50;;;2.40;99.90;;;;;;5069246;28;20600;-76
2022/02/11 02:59:00;;;;;;;0.68;0.68;;;2.40;99.90;;;;;;5069769;28;20193;-77
2022/02/11 03:15:22;;;;;;;3.30;1.50;;;2.60;99.90;;;;;;5031674;28;20618;-79
2022/02/11 03:34:35;;;;;;;0.90;0.90;;;2.70;99.90;;;;;;5029789;28;20561;-79
2022/02/11 03:51:14;;;;;;;3.47;3.17;;;2.90;99.90;;;;;;5029026;28;20190;-79
2022/02/11 04:21:50;;;;;;;1.95;1.75;;;3.00;99.90;;;;;;5020935;28;20219;-78
2022/02/11 05:00:02;;;;;;;1.02;0.60;;;3.10;99.90;;;;;;5013120;28;20226;-78
2022/02/11 05:02:30;;;;;;;3.40;2.00;;;3.10;99.90;;;;;;5013203;28;20223;-78
2022/02/11 05:04:57;;;;;;;5.32;2.22;;;3.20;99.90;;;;;;5012457;28;20211;-78
2022/02/11 05:07:24;;;;;;;0.88;0.88;;;3.20;99.90;;;;;;5013660;28;20196;-78
2022/02/11 05:09:52;;;;;;;2.63;2.53;;;3.20;99.90;;;;;;5013332;28;20200;-77
2022/02/11 05:12:19;;;;;;;0.90;0.70;;;3.20;99.90;;;;;;5013513;28;20216;-79
2022/02/11 05:14:45;;;;;;;1.33;1.20;;;3.30;99.90;;;;;;5013300;28;20250;-78
2022/02/11 05:17:12;;;;;;;1.52;1.42;;;3.30;99.90;;;;;;5012807;28;20211;-77
2022/02/11 05:19:39;;;;;;;2.88;1.63;;;3.30;99.90;;;;;;5013181;28;20242;-78
2022/02/11 05:22:05;;;;;;;4.40;4.18;;;3.40;99.90;;;;;;5013150;28;20224;-79
2022/02/11 05:24:32;;;;;;;4.93;2.65;;;3.40;99.90;;;;;;5013433;28;20199;-78
2022/02/11 05:27:00;;;;;;;3.88;2.22;;;3.40;99.90;;;;;;5013061;28;20196;-77
2022/02/11 05:29:27;;;;;;;4.00;1.70;;;3.40;99.90;;;;;;5012958;28;20208;-78
2022/02/11 05:31:53;;;;;;;0.50;0.40;;;3.40;99.90;;;;;;5013023;28;20558;-78
2022/02/11 05:34:20;;;;;;;0.80;0.80;;;3.50;99.90;;;;;;5013118;28;20196;-79
2022/02/11 05:36:47;;;;;;;2.45;2.15;;;3.50;99.90;;;;;;5012977;28;20250;-78
2022/02/11 05:39:13;;;;;;;1.70;1.60;;;3.60;99.90;;;;;;5012977;28;20246;-78
2022/02/11 05:41:40;;;;;;;1.45;0.82;;;3.60;99.90;;;;;;5012627;28;20756;-78
2022/02/11 05:44:08;;;;;;;3.05;1.02;;;3.60;99.90;;;;;;5013090;28;20554;-78
2022/02/11 05:46:35;;;;;;;1.15;1.15;;;3.60;99.90;;;;;;5013315;28;20287;-78
2022/02/11 05:49:01;;;;;;;0.63;0.60;;;3.70;99.90;;;;;;5012436;28;20404;-78
2022/02/11 05:51:28;;;;;;;1.50;1.40;;;3.70;99.90;;;;;;5009471;28;20843;-78
2022/02/11 05:53:55;;;;;;;1.20;0.70;;;3.80;99.90;;;;;;4992873;28;20204;-79
2022/02/11 05:56:21;;;;;;;0.50;0.40;;;3.80;99.90;;;;;;4992602;28;20226;-78
2022/02/11 05:58:48;;;;;;;1.15;1.05;;;3.90;99.90;;;;;;4992615;28;20204;-76
2022/02/11 06:01:16;;;;;;;1.02;0.88;;;3.90;99.90;;;;;;4992785;28;20274;-77
2022/02/11 06:03:43;;;;;;;1.38;1.27;;;3.90;99.90;;;;;;4992790;28;20279;-76
2022/02/11 06:06:09;;;;;;;1.63;1.50;;;3.90;99.90;;;;;;4992921;28;20196;-78
2022/02/11 06:08:36;;;;;;;4.32;1.63;;;3.90;99.90;;;;;;4992430;28;20270;-77
2022/02/11 06:11:03;;;;;;;1.02;0.93;;;3.90;99.90;;;;;;4992920;28;20274;-77
2022/02/11 06:13:29;;;;;;;6.15;1.70;;;3.90;99.90;;;;;;4992884;28;20626;-78
2022/02/11 06:15:56;;;;;;;0.50;0.50;;;4.00;99.90;;;;;;4992584;28;20243;-78
2022/02/11 06:18:24;;;;;;;0.60;0.60;;;4.00;99.90;;;;;;4992606;28;20243;-77
2022/02/11 06:20:51;;;;;;;0.50;0.40;;;4.00;99.90;;;;;;4992402;28;20248;-77
2022/02/11 06:23:18;;;;;;;0.50;0.40;;;4.00;99.90;;;;;;4992306;28;20213;-78
2022/02/11 06:25:44;;;;;;;0.85;0.85;;;4.00;99.90;;;;;;5010188;28;20207;-77
2022/02/11 06:28:12;;;;;;;0.40;0.40;;;4.10;99.90;;;;;;5010400;28;20200;-78
2022/02/11 06:30:38;;;;;;;1.67;1.15;;;4.10;99.90;;;;;;5011587;28;20294;-75
2022/02/11 06:33:05;;;;;;;0.50;0.40;;;4.10;99.90;;;;;;5011904;28;20254;-78
2022/02/11 06:35:34;;;;;;;0.50;0.40;;;4.10;99.90;;;;;;5011118;28;20250;-77
2022/02/11 06:38:01;;;;;;;0.98;0.98;;;4.10;99.90;;;;;;5012075;28;20199;-77
2022/02/11 06:40:29;;;;;;;0.50;0.40;;;4.10;99.90;;;;;;5011179;28;20703;-78
2022/02/11 06:42:56;;;;;;;0.50;0.40;;;4.20;99.90;;;;;;5003607;28;20255;-77
2022/02/11 06:45:22;;;;;;;2.78;0.80;;;4.20;99.90;;;;;;5010798;28;20258;-78
2022/02/11 06:47:49;;;;;;;0.60;0.60;;;4.20;99.90;;;;;;5010900;28;20669;-78
2022/02/11 06:50:16;;;;;;;0.40;0.40;;;4.20;99.90;;;;;;5010720;28;20215;-78
2022/02/11 06:52:44;;;;;;;0.50;0.40;;;4.20;99.90;;;;;;5012812;28;20224;-79
2022/02/11 06:55:11;;;;;;;1.65;1.55;;;4.20;99.90;;;;;;5012185;28;20207;-79
2022/02/11 06:57:38;;;;;;;1.63;0.80;;;4.20;99.90;;;;;;5012627;28;20195;-78
2022/02/11 07:00:08;;;;;;;0.85;0.85;;;4.20;99.90;;;;;;5011319;28;20207;-76
2022/02/11 07:02:35;;;;;;;1.05;1.02;;;4.20;99.90;;;;;;5011379;28;20231;-74
2022/02/11 07:05:03;;;;;;;0.50;0.40;;;4.20;99.90;;;;;;5011793;28;20262;-78
2022/02/11 07:07:29;;;;;;;0.60;0.50;;;4.10;99.90;;;;;;5011639;28;20192;-78
2022/02/11 07:09:57;;;;;;;0.50;0.45;;;4.10;99.90;;;;;;5011183;28;20276;-78
2022/02/11 07:12:24;;;;;;;0.50;0.50;;;4.00;99.90;;;;;;5011328;28;20208;-76
2022/02/11 07:14:51;;;;;;;0.45;0.40;;;4.00;99.90;;;;;;5010808;28;20207;-77
2022/02/11 07:17:17;;;;;;;0.73;0.73;;;4.00;99.90;;;;;;5011264;28;20254;-77
2022/02/11 07:19:44;;;;;;;1.05;0.50;;;4.00;99.90;;;;;;5011184;28;20196;-78
2022/02/11 07:22:11;;;;;;;0.50;0.40;;;4.00;99.90;;;;;;5011418;28;20224;-78
2022/02/11 07:24:37;;;;;;;1.70;0.50;;;4.10;99.90;;;;;;5010917;28;20587;-78
2022/02/11 07:27:06;;;;;;;2.83;0.60;;;4.20;99.90;;;;;;5011640;28;20250;-77
2022/02/11 07:29:32;;;;;;;2.05;0.98;;;4.20;99.90;;;;;;5014372;28;20208;-78
2022/02/11 07:31:59;;;;;;;1.13;1.02;;;4.30;99.90;;;;;;5014902;28;20694;-78
2022/02/11 07:34:26;;;;;;;0.50;0.40;;;4.30;99.90;;;;;;5014354;28;20202;-76
2022/02/11 07:36:53;;;;;;;1.67;0.70;;;4.30;99.90;;;;;;5014446;28;20207;-78
2022/02/11 07:39:19;;;;;;;0.50;0.40;;;4.30;99.90;;;;;;5014926;28;20666;-78
2022/02/11 07:41:46;;;;;;;0.50;0.40;;;4.30;99.90;;;;;;5014617;28;20266;-78
2022/02/11 07:44:14;;;;;;;0.50;0.40;;;4.30;99.90;;;;;;5014555;28;20543;-78
2022/02/11 07:46:40;;;;;;;1.10;1.00;;;4.30;99.90;;;;;;5014366;28;20203;-77
2022/02/11 07:49:07;;;;;;;0.50;0.40;;;4.30;99.90;;;;;;5014478;28;20196;-78
2022/02/11 07:51:34;;;;;;;3.80;2.05;;;4.30;99.90;;;;;;5013883;28;20196;-78
2022/02/11 07:54:01;;;;;;;0.50;0.40;;;4.20;99.90;;;;;;5014191;28;20206;-78
2022/02/11 07:56:27;;;;;;;0.50;0.40;;;4.20;99.90;;;;;;5014559;28;20227;-78
2022/02/11 07:58:54;;;;;;;0.50;0.40;;;4.30;99.90;;;;;;5014547;28;20250;-77
2022/02/11 08:01:22;;;;;;;0.50;0.40;;;4.30;99.90;;;;;;5014484;28;20601;-77
2022/02/11 08:03:50;;;;;;;0.50;0.40;;;4.40;99.90;;;;;;5014009;28;20235;-78
2022/02/11 08:06:17;;;;;;;0.50;0.40;;;4.40;99.90;;;;;;5014627;28;20200;-78
2022/02/11 08:08:44;;;;;;;0.50;0.40;;;4.50;99.90;;;;;;5014404;28;20208;-78
2022/02/11 08:11:11;;;;;;;0.50;0.40;;;4.50;99.90;;;;;;5014236;28;20200;-77
2022/02/11 08:13:37;;;;;;;0.50;0.40;;;4.50;99.90;;;;;;5013929;28;20227;-76
2022/02/11 08:16:05;;;;;;;0.50;0.40;;;4.60;99.90;;;;;;5014439;28;20196;-76
2022/02/11 08:18:34;;;;;;;0.95;0.85;;;4.60;99.90;;;;;;5013682;28;20262;-76
2022/02/11 08:21:00;;;;;;;1.48;1.48;;;4.60;99.90;;;;;;5013422;28;20202;-77
2022/02/11 08:23:27;;;;;;;0.50;0.40;;;4.60;99.90;;;;;;5013652;28;20242;-74
2022/02/11 08:25:54;;;;;;;2.10;1.20;;;4.60;99.90;;;;;;5013965;28;20600;-76
2022/02/11 08:28:21;;;;;;;0.50;0.43;;;4.60;99.90;;;;;;5014371;28;20246;-76
2022/02/11 08:30:49;;;;;;;0.50;0.40;;;4.70;99.90;;;;;;5013186;28;20665;-76
2022/02/11 08:33:17;;;;;;;1.25;1.25;;;4.70;99.90;;;;;;5014459;28;20299;-76
2022/02/11 08:35:45;;;;;;;2.13;1.92;;;4.70;99.90;;;;;;5013450;28;20614;-76
2022/02/11 08:38:12;;;;;;;0.50;0.47;;;4.80;99.90;;;;;;5014253;28;20204;-77
2022/02/11 08:40:38;;;;;;;0.88;0.88;;;4.70;99.90;;;;;;5014020;28;20250;-74
2022/02/11 08:43:05;;;;;;;0.50;0.40;;;4.70;99.90;;;;;;5014114;28;20574;-76
2022/02/11 08:45:36;;;;;;;0.50;0.50;;;4.70;99.90;;;;;;5013325;28;20631;-74
2022/02/11 08:48:04;;;;;;;1.05;1.05;;;4.70;99.90;;;;;;5013904;28;20591;-76
2022/02/11 08:50:31;;;;;;;0.50;0.40;;;4.70;99.90;;;;;;5012955;28;20200;-76
2022/02/11 08:52:59;;;;;;;0.50;0.40;;;4.70;99.90;;;;;;5013655;28;20701;-76
2022/02/11 08:55:25;;;;;;;0.50;0.40;;;5.10;99.90;;;;;;5013315;28;20329;-77
2022/02/11 08:57:53;;;;;;;0.50;0.40;;;5.90;99.90;;;;;;5013328;28;20273;-77
2022/02/11 09:00:20;;;;;;;0.80;0.80;;;6.30;99.90;;;;;;5013313;28;20219;-77
2022/02/11 09:02:47;;;;;;;1.67;0.85;;;6.50;99.90;;;;;;5013780;28;20637;-76
2022/02/11 09:05:14;;;;;;;0.50;0.40;;;6.50;99.90;;;;;;5013450;28;20197;-76
2022/02/11 09:07:40;;;;;;;1.80;1.08;;;6.30;99.90;;;;;;5013564;28;20598;-76
2022/02/11 09:10:10;;;;;;;0.93;0.93;;;6.40;99.90;;;;;;5012617;28;20207;-76
2022/02/11 09:12:36;;;;;;;0.80;0.65;;;7.50;99.90;;;;;;5012856;28;20212;-77
2022/02/11 09:15:03;;;;;;;3.50;1.85;;;8.80;99.90;;;;;;5013168;28;20539;-76
2022/02/11 09:17:30;;;;;;;0.50;0.40;;;9.50;99.90;;;;;;5013021;28;20195;-76
2022/02/11 09:19:57;;;;;;;2.90;2.15;;;9.90;99.90;;;;;;5012906;28;20197;-77
2022/02/11 09:22:23;;;;;;;1.40;0.50;;;11.00;99.90;;;;;;5012265;28;20303;-77
2022/02/11 09:24:51;;;;;;;1.20;1.00;;;12.10;99.90;;;;;;5012782;28;20196;-77
2022/02/11 09:27:19;;;;;;;0.80;0.75;;;12.30;99.90;;;;;;5012726;28;20199;-76
2022/02/11 09:29:46;;;;;;;4.78;2.70;;;12.00;99.90;;;;;;5012619;28;20258;-77
2022/02/11 09:32:13;;;;;;;1.58;1.15;;;12.40;99.90;;;;;;5012562;28;20216;-78
2022/02/11 09:34:39;;;;;;;0.95;0.70;;;12.10;99.90;;;;;;5013179;28;20287;-76
2022/02/11 09:37:06;;;;;;;3.72;1.38;;;11.20;99.90;;;;;;5007623;28;20204;-76
2022/02/11 09:39:33;;;;;;;0.70;0.70;;;10.60;99.90;;;;;;4935868;28;20475;-75
2022/02/11 09:42:00;;;;;;;0.50;0.50;;;10.60;99.90;;;;;;5003978;28;20226;-76
2022/02/11 09:44:28;;;;;;;0.50;0.40;;;10.70;99.90;;;;;;5012738;28;20192;-77
2022/02/11 09:46:56;;;;;;;0.50;0.50;;;11.10;99.90;;;;;;5011868;28;20212;-76
2022/02/11 09:49:23;;;;;;;1.00;1.00;;;11.70;99.90;;;;;;5012009;28;20846;-76
2022/02/11 09:51:53;;;;;;;0.50;0.40;;;11.20;99.90;;;;;;5012091;28;20297;-76
2022/02/11 09:54:20;;;;;;;0.60;0.50;;;10.90;99.90;;;;;;5011980;28;20358;-76
2022/02/11 09:56:48;;;;;;;0.50;0.40;;;10.80;99.90;;;;;;5012165;28;20454;-76
2022/02/11 09:59:15;;;;;;;10.27;1.30;;;10.70;99.90;;;;;;5011954;28;20211;-76
2022/02/11 10:01:45;;;;;;;0.60;0.50;;;9.60;99.90;;;;;;5011616;28;20203;-76
2022/02/11 10:04:14;;;;;;;0.50;0.40;;;9.00;99.90;;;;;;5012083;28;20625;-76
2022/02/11 10:06:42;;;;;;;0.50;0.40;;;9.20;99.90;;;;;;5011444;28;20646;-76
2022/02/11 10:09:09;;;;;;;1.02;1.02;;;9.40;99.90;;;;;;5011919;28;20613;-75
2022/02/11 10:11:36;;;;;;;0.50;0.40;;;9.20;99.90;;;;;;5011915;28;20621;-76
2022/02/11 10:14:25;;;;;;;0.50;0.40;;;9.10;99.90;;;;;;5011784;28;20738;-76
2022/02/11 10:17:04;;;;;;;0.50;0.40;;;9.30;99.90;;;;;;5011625;28;20696;-76
2022/02/11 10:19:42;;;;;;;0.50;0.40;;;9.80;99.90;;;;;;5011703;28;20558;-76
2022/02/11 10:22:14;;;;;;;0.65;0.63;;;10.00;99.90;;;;;;5011566;28;20220;-76
2022/02/11 10:24:42;;;;;;;3.30;3.10;;;10.30;99.90;;;;;;5011644;28;20192;-75
2022/02/11 10:27:26;;;;;;;2.00;1.27;;;10.20;99.90;;;;;;5011871;28;20737;-76
2022/02/11 10:29:56;;;;;;;1.67;1.58;;;10.30;99.90;;;;;;5011204;28;20633;-76
2022/02/11 10:32:46;;;;;;;0.60;0.57;;;10.20;99.90;;;;;;5011671;28;20215;-76
2022/02/11 10:35:14;;;;;;;2.42;1.80;;;10.10;99.90;;;;;;5011858;28;20196;-75
2022/02/11 10:38:09;;;;;;;0.50;0.40;;;9.90;99.90;;;;;;5011383;28;20283;-76
2022/02/11 10:40:38;;;;;;;0.90;0.70;;;10.20;99.90;;;;;;5011271;28;20203;-76
2022/02/11 10:43:17;;;;;;;0.80;0.55;;;9.90;99.90;;;;;;5011460;28;20227;-76
2022/02/11 10:45:43;;;;;;;0.50;0.40;;;9.90;99.90;;;;;;5011384;28;20274;-77
2022/02/11 10:48:17;;;;;;;0.63;0.63;;;10.20;99.90;;;;;;5011434;28;20208;-76
2022/02/11 10:50:51;;;;;;;2.70;2.25;;;10.10;99.90;;;;;;5010919;28;20189;-76
2022/02/11 10:53:23;;;;;;;2.35;1.13;;;9.90;99.90;;;;;;5011539;28;20555;-77
2022/02/11 10:55:51;;;;;;;0.50;0.40;;;9.80;99.90;;;;;;5010803;28;20203;-76
2022/02/11 10:58:18;;;;;;;1.27;0.50;;;9.40;99.90;;;;;;5011378;28;20196;-76
2022/02/11 11:00:45;;;;;;;6.07;0.88;;;9.30;99.90;;;;;;5010650;28;20245;-76
2022/02/11 11:03:12;;;;;;;0.50;0.40;;;9.00;99.90;;;;;;5013549;28;20218;-76
2022/02/11 11:05:42;;;;;;;2.65;0.95;;;8.70;99.90;;;;;;5015707;28;20228;-77
2022/02/11 11:08:10;;;;;;;6.38;0.70;;;8.50;99.90;;;;;;5015426;28;20249;-76
2022/02/11 11:10:40;;;;;;;0.50;0.40;;;8.10;99.90;;;;;;5015154;28;20707;-78
2022/02/11 11:13:10;;;;;;;0.70;0.70;;;8.10;99.90;;;;;;5015440;28;20547;-77
2022/02/11 11:15:37;;;;;;;0.60;0.50;;;8.10;99.90;;;;;;5015104;28;20213;-77
2022/02/11 11:18:07;;;;;;;0.50;0.40;;;7.90;99.90;;;;;;5014913;28;20207;-77
2022/02/11 11:20:35;;;;;;;1.15;0.70;;;7.70;99.90;;;;;;5014838;28;20245;-75
2022/02/11 11:23:09;;;;;;;0.60;0.60;;;7.70;99.90;;;;;;5014574;28;20226;-76
2022/02/11 11:25:55;;;;;;;0.50;0.40;;;7.80;99.90;;;;;;5014870;28;20727;-76
2022/02/11 11:28:42;;;;;;;0.50;0.40;;;7.90;99.90;;;;;;5015228;28;20228;-77
2022/02/11 11:31:17;;;;;;;0.60;0.60;;;8.00;99.90;;;;;;5014824;28;20195;-77
2022/02/11 11:33:45;;;;;;;0.85;0.77;;;8.00;99.90;;;;;;5014909;28;20250;-77
2022/02/11 11:36:15;;;;;;;2.58;2.45;;;7.90;99.90;;;;;;5014995;28;20277;-77
2022/02/11 11:38:48;;;;;;;0.60;0.60;;;7.80;99.90;;;;;;5014882;28;20187;-77
2022/02/11 11:41:20;;;;;;;0.50;0.40;;;7.70;99.90;;;;;;5014555;28;20187;-77
2022/02/11 11:43:50;;;;;;;1.23;1.08;;;7.50;99.90;;;;;;5014896;28;20234;-76
2022/02/11 11:46:29;;;;;;;1.15;1.05;;;7.40;99.90;;;;;;5014793;28;20198;-76
2022/02/11 11:48:59;;;;;;;0.50;0.40;;;7.30;99.90;;;;;;5014187;28;20199;-77
2022/02/11 11:51:27;;;;;;;0.50;0.40;;;7.20;99.90;;;;;;5014024;28;20297;-76
2022/02/11 11:54:26;;;;;;;0.60;0.50;;;7.40;99.90;;;;;;5014618;28;20245;-75
2022/02/11 11:56:57;;;;;;;0.50;0.40;;;7.60;99.90;;;;;;5014460;28;20186;-77
2022/02/11 11:59:29;;;;;;;0.50;0.40;;;7.80;99.90;;;;;;5014258;28;20214;-76
2022/02/11 12:01:59;;;;;;;0.50;0.40;;;7.90;99.90;;;;;;5013985;28;20227;-77
2022/02/11 12:04:26;;;;;;;0.50;0.40;;;7.90;99.90;;;;;;5014128;28;20222;-77
2022/02/11 12:06:55;;;;;;;0.50;0.40;;;8.00;99.90;;;;;;5014584;28;20202;-77
2022/02/11 12:09:24;;;;;;;1.40;1.02;;;8.00;99.90;;;;;;5014054;28;20196;-77
2022/02/11 12:12:00;;;;;;;0.50;0.40;;;8.00;99.90;;;;;;5013930;28;20226;-74
2022/02/11 12:14:28;;;;;;;0.65;0.65;;;7.80;99.90;;;;;;5014139;28;20179;-77
2022/02/11 12:16:55;;;;;;;0.50;0.40;;;7.70;99.90;;;;;;5013980;28;20239;-76
2022/02/11 12:19:22;;;;;;;0.50;0.40;;;7.70;99.90;;;;;;5013806;28;20199;-77
2022/02/11 12:21:49;;;;;;;0.50;0.40;;;7.90;99.90;;;;;;5014040;28;20212;-77
2022/02/11 12:27:21;;;;;;;0.50;0.40;;;8.30;99.90;;;;;;5013687;28;20612;-77
2022/02/11 12:29:53;;;;;;;0.50;0.40;;;8.50;99.90;;;;;;5013671;28;20188;-77
2022/02/11 12:32:21;;;;;;;0.50;0.40;;;9.10;99.90;;;;;;5013695;28;20227;-75
2022/02/11 12:34:52;;;;;;;0.50;0.40;;;9.40;99.90;;;;;;5013623;28;20558;-77
2022/02/11 12:37:20;;;;;;;0.50;0.40;;;9.50;99.90;;;;;;5013819;28;20222;-78
2022/02/11 12:39:48;;;;;;;0.50;0.40;;;9.70;99.90;;;;;;5013310;28;20199;-77
2022/02/11 12:42:24;;;;;;;0.50;0.40;;;9.60;97.30;;;;;;5013344;28;20227;-77
2022/02/11 12:44:51;;;;;;;0.50;0.40;;;9.60;99.90;;;;;;5013350;28;20196;-77
2022/02/11 12:47:18;;;;;;;0.50;0.40;;;9.40;98.90;;;;;;5013509;28;20223;-77
2022/02/11 12:49:46;;;;;;;0.50;0.40;;;9.20;99.90;;;;;;5013118;28;20203;-77
2022/02/11 12:52:18;;;;;;;0.50;0.50;;;9.00;99.90;;;;;;5013263;28;20708;-77
2022/02/11 12:55:01;;;;;;;0.82;0.82;;;8.80;99.70;;;;;;5012983;28;20207;-77
2022/02/11 12:57:30;;;;;;;0.50;0.40;;;8.60;99.90;;;;;;5010855;28;20301;-77
2022/02/11 12:59:57;;;;;;;0.60;0.50;;;8.60;99.90;;;;;;5013162;28;20204;-78
2022/02/11 13:02:30;;;;;;;4.72;3.63;;;8.60;99.90;;;;;;5008170;28;20231;-77
2022/02/11 13:05:08;;;;;;;0.50;0.40;;;8.70;99.90;;;;;;5009333;28;20223;-75
2022/02/11 13:07:36;;;;;;;0.50;0.40;;;9.00;99.90;;;;;;5013282;28;20253;-75
2022/02/11 13:10:04;;;;;;;0.50;0.40;;;9.30;99.90;;;;;;5012349;28;20212;-75
2022/02/11 13:12:45;;;;;;;0.50;0.40;;;9.40;99.90;;;;;;5013153;28;20219;-72
2022/02/11 13:15:16;;;;;;;0.50;0.40;;;9.60;98.20;;;;;;5013294;28;20989;-75
2022/02/11 13:17:44;;;;;;;0.63;0.47;;;9.50;94.50;;;;;;5013111;28;20187;-73
2022/02/11 13:20:14;;;;;;;1.15;1.05;;;9.50;95.50;;;;;;5012312;28;20199;-75
2022/02/11 13:22:42;;;;;;;0.50;0.40;;;9.30;94.60;;;;;;5012795;28;20713;-75
2022/02/11 13:25:12;;;;;;;0.50;0.40;;;9.10;97.10;;;;;;5011856;28;20207;-76
2022/02/11 13:27:46;;;;;;;3.45;0.50;;;8.80;99.90;;;;;;5012819;28;20240;-75
2022/02/11 13:30:15;;;;;;;3.10;0.82;;;8.60;99.90;;;;;;5011986;28;20234;-76
2022/02/11 13:32:41;;;;;;;0.50;0.40;;;8.40;99.90;;;;;;5012748;28;20219;-77
2022/02/11 13:35:11;;;;;;;0.50;0.40;;;8.00;99.90;;;;;;5012316;28;20693;-76
2022/02/11 13:37:39;;;;;;;0.50;0.40;;;7.90;99.90;;;;;;5012579;28;20268;-76
2022/02/11 13:40:21;;;;;;;1.20;1.20;;;7.60;99.90;;;;;;5011721;28;20217;-76
2022/02/11 13:43:02;;;;;;;0.50;0.40;;;7.50;99.90;;;;;;5012703;28;20222;-75
2022/02/11 13:45:30;;;;;;;0.50;0.40;;;7.40;99.90;;;;;;5012259;28;20649;-76
2022/02/11 13:48:06;;;;;;;1.58;1.58;;;7.30;99.90;;;;;;5012292;28;20252;-76
2022/02/11 13:50:54;;;;;;;5.45;0.70;;;7.30;99.90;;;;;;5011770;28;20194;-76
2022/02/11 13:53:30;;;;;;;0.50;0.40;;;7.40;99.90;;;;;;5012184;28;20241;-74
2022/02/11 13:55:57;;;;;;;0.50;0.40;;;7.40;99.90;;;;;;5012162;28;20190;-76
2022/02/11 13:58:26;;;;;;;0.50;0.40;;;7.50;99.90;;;;;;5012484;28;20282;-78
2022/02/11 14:00:53;;;;;;;0.50;0.40;;;7.50;99.90;;;;;;5011352;28;20570;-75
2022/02/11 14:03:25;;;;;;;0.50;0.50;;;7.50;99.90;;;;;;5011709;28;20229;-76
2022/02/11 14:05:54;;;;;;;0.85;0.85;;;7.60;99.90;;;;;;5012186;28;20230;-76
2022/02/11 14:08:23;;;;;;;3.55;1.45;;;7.80;99.90;;;;;;5012108;28;20684;-78
2022/02/11 14:11:08;;;;;;;0.50;0.40;;;8.00;99.90;;;;;;5011810;28;20226;-76
2022/02/11 14:13:36;;;;;;;0.50;0.40;;;8.30;99.90;;;;;;5011717;28;20258;-76
2022/02/11 14:16:03;;;;;;;0.60;0.60;;;8.30;99.90;;;;;;5011687;28;20715;-75
2022/02/11 14:18:30;;;;;;;0.50;0.40;;;8.20;99.90;;;;;;5012019;28;20200;-76
2022/02/11 14:20:57;;;;;;;0.50;0.40;;;8.20;99.90;;;;;;5011968;28;20199;-76
2022/02/11 14:23:24;;;;;;;0.50;0.40;;;8.30;99.90;;;;;;5010918;28;20310;-78
2022/02/11 14:25:51;;;;;;;0.50;0.40;;;8.30;99.90;;;;;;5009152;28;20199;-75
2022/02/11 14:28:19;;;;;;;0.50;0.40;;;8.70;99.90;;;;;;5011663;28;20266;-75
2022/02/11 14:30:48;;;;;;;0.50;0.40;;;8.90;99.90;;;;;;5011318;28;20238;-76
2022/02/11 14:33:15;;;;;;;1.25;0.50;;;8.90;99.90;;;;;;5011525;28;20223;-76
2022/02/11 14:35:42;;;;;;;0.50;0.40;;;8.90;99.90;;;;;;5010673;28;20210;-76
2022/02/11 14:38:09;;;;;;;0.50;0.40;;;9.10;99.90;;;;;;5010558;28;20192;-76
2022/02/11 14:40:35;;;;;;;0.50;0.40;;;9.30;99.90;;;;;;5010034;28;20660;-76
2022/02/11 14:43:03;;;;;;;0.50;0.40;;;9.10;99.90;;;;;;5011384;28;20217;-76
2022/02/11 14:45:30;;;;;;;0.50;0.40;;;8.70;99.90;;;;;;5012138;28;20192;-75
2022/02/11 14:47:58;;;;;;;0.50;0.50;;;8.00;99.90;;;;;;5011215;28;20666;-76
2022/02/11 14:50:25;;;;;;;2.00;1.45;;;7.70;99.90;;;;;;5011177;28;20234;-76
2022/02/11 14:52:51;;;;;;;0.50;0.40;;;7.50;99.90;;;;;;5011770;28;20229;-77
2022/02/11 14:55:18;;;;;;;0.50;0.40;;;7.60;99.90;;;;;;5011732;28;20198;-77
2022/02/11 14:57:45;;;;;;;0.50;0.40;;;7.90;99.90;;;;;;5011124;28;20724;-76
2022/02/11 15:00:12;;;;;;;0.50;0.40;;;8.20;99.90;;;;;;5011409;28;20203;-76
2022/02/11 15:02:39;;;;;;;0.50;0.40;;;8.60;99.90;;;;;;5011768;28;20632;-76
2022/02/11 15:05:08;;;;;;;0.50;0.40;;;8.70;99.90;;;;;;5030271;23;20227;-77
2022/02/11 15:07:36;;;;;;;0.52;0.52;;;9.10;99.90;;;;;;5016418;28;20199;-78
2022/02/11 15:10:03;;;;;;;0.50;0.40;;;9.10;96.70;;;;;;5031005;28;20201;-78
2022/02/11 15:12:30;;;;;;;0.50;0.40;;;9.20;96.60;;;;;;5031619;28;20199;-77
2022/02/11 15:14:56;;;;;;;0.50;0.40;;;9.20;97.20;;;;;;5040110;28;20460;-75
2022/02/11 15:17:23;;;;;;;0.50;0.40;;;9.20;93.80;;;;;;5051883;28;20202;-77
2022/02/11 15:19:50;;;;;;;0.50;0.40;;;9.00;94.70;;;;;;5050906;28;20277;-78
2022/02/11 15:22:18;;;;;;;0.50;0.40;;;9.00;94.80;;;;;;5051838;28;20202;-78
2022/02/11 15:24:48;;;;;;;0.50;0.40;;;8.90;94.90;;;;;;5051796;28;20218;-77
2022/02/11 15:27:16;;;;;;;0.50;0.40;;;8.70;94.20;;;;;;5051317;28;20647;-77
2022/02/11 15:29:43;;;;;;;0.50;0.40;;;8.60;91.10;;;;;;5051652;28;20278;-78
2022/02/11 15:32:10;;;;;;;0.50;0.40;;;8.60;90.50;;;;;;5052025;28;20191;-78
2022/02/11 15:34:37;;;;;;;1.35;1.25;;;8.70;90.90;;;;;;5052904;28;20746;-78
2022/02/11 15:37:05;;;;;;;0.50;0.40;;;9.00;92.40;;;;;;5052233;28;20206;-77
2022/02/11 15:39:34;;;;;;;0.50;0.40;;;8.70;86.00;;;;;;5051263;28;20225;-78
2022/02/11 15:42:01;;;;;;;0.50;0.40;;;8.70;88.40;;;;;;5054550;28;20565;-78
2022/02/11 15:44:28;;;;;;;0.55;0.52;;;8.50;89.40;;;;;;5052443;28;20587;-76
2022/02/11 15:46:55;;;;;;;0.50;0.40;;;8.30;88.50;;;;;;5051758;28;20197;-78
2022/02/11 15:49:22;;;;;;;0.50;0.40;;;7.80;87.70;;;;;;5053713;28;20239;-78
2022/02/11 15:51:49;;;;;;;0.50;0.40;;;7.50;87.30;;;;;;5055699;28;20226;-77
2022/02/11 15:54:16;;;;;;;0.50;0.40;;;7.20;91.50;;;;;;5055149;28;20295;-78
2022/02/11 15:56:44;;;;;;;0.50;0.40;;;6.90;92.80;;;;;;5054931;28;20196;-76
2022/02/11 15:59:10;;;;;;;0.50;0.40;;;6.60;94.50;;;;;;5055003;28;20201;-77
2022/02/11 16:01:37;;;;;;;0.50;0.40;;;6.40;99.90;;;;;;5055417;28;20197;-78
2022/02/11 16:04:05;;;;;;;0.50;0.40;;;6.20;99.90;;;;;;5054372;28;20210;-78
2022/02/11 16:06:32;;;;;;;0.50;0.40;;;6.00;99.90;;;;;;5055180;28;20290;-76
2022/02/11 16:08:59;;;;;;;0.50;0.40;;;6.00;99.90;;;;;;5054610;28;20202;-78
2022/02/11 16:11:25;;;;;;;0.50;0.40;;;5.90;99.90;;;;;;5055363;28;20199;-78